createdAt,value
2019-05-26T00:00:39.537Z,1008.46
2019-05-26T00:01:39.503Z,1008.41
2019-05-26T00:02:39.477Z,1008.46
2019-05-26T00:03:39.433Z,1008.42
2019-05-26T00:04:39.414Z,1008.39
2019-05-26T00:05:39.381Z,1008.37
2019-05-26T00:06:39.347Z,1008.38
2019-05-26T00:07:39.312Z,1008.35
2019-05-26T00:08:39.286Z,1008.38
2019-05-26T00:09:39.248Z,1008.38
2019-05-26T00:10:39.218Z,1008.36
2019-05-26T00:11:39.193Z,1008.38
2019-05-26T00:12:39.152Z,1008.34
2019-05-26T00:13:39.126Z,1008.35
2019-05-26T00:14:39.086Z,1008.35
2019-05-26T00:15:39.062Z,1008.34
2019-05-26T00:16:39.018Z,1008.36
2019-05-26T00:17:38.988Z,1008.28
2019-05-26T00:18:38.958Z,1008.30
2019-05-26T00:19:38.968Z,1008.28
2019-05-26T00:20:38.889Z,1008.28
2019-05-26T00:21:38.859Z,1008.30
2019-05-26T00:22:38.846Z,1008.34
2019-05-26T00:23:38.793Z,1008.32
2019-05-26T00:24:38.764Z,1008.30
2019-05-26T00:25:38.738Z,1008.30
2019-05-26T00:26:38.716Z,1008.32
2019-05-26T00:27:38.673Z,1008.27
2019-05-26T00:28:38.643Z,1008.29
2019-05-26T00:29:38.604Z,1008.29
2019-05-26T00:30:38.588Z,1008.30
2019-05-26T00:31:38.532Z,1008.26
2019-05-26T00:32:38.503Z,1008.28
2019-05-26T00:33:38.474Z,1008.32
2019-05-26T00:34:38.438Z,1008.28
2019-05-26T00:35:38.428Z,1008.28
2019-05-26T00:36:38.405Z,1008.26
2019-05-26T00:37:49.206Z,1008.24
2019-05-26T00:38:38.318Z,1008.25
2019-05-26T00:39:38.268Z,1008.23
2019-05-26T00:40:38.243Z,1008.24
2019-05-26T00:41:38.218Z,1008.28
2019-05-26T00:42:38.186Z,1008.24
2019-05-26T00:43:38.135Z,1008.24
2019-05-26T00:44:38.118Z,1008.25
2019-05-26T00:45:38.080Z,1008.22
2019-05-26T00:46:38.063Z,1008.22
2019-05-26T00:47:38.064Z,1008.22
2019-05-26T00:48:37.984Z,1008.23
2019-05-26T00:49:37.950Z,1008.23
2019-05-26T00:50:37.933Z,1008.22
2019-05-26T00:51:37.890Z,1008.22
2019-05-26T00:52:37.858Z,1008.21
2019-05-26T00:53:37.848Z,1008.19
2019-05-26T00:54:37.788Z,1008.18
2019-05-26T00:55:37.784Z,1008.23
2019-05-26T00:56:37.743Z,1008.21
2019-05-26T00:57:37.692Z,1008.21
2019-05-26T00:58:37.690Z,1008.18
2019-05-26T00:59:37.626Z,1008.20
2019-05-26T01:00:37.594Z,1008.17
2019-05-26T01:01:37.579Z,1008.16
2019-05-26T01:02:37.535Z,1008.15
2019-05-26T01:03:37.491Z,1008.09
2019-05-26T01:04:37.471Z,1008.10
2019-05-26T01:05:37.430Z,1008.13
2019-05-26T01:06:37.405Z,1008.13
2019-05-26T01:07:37.400Z,1008.13
2019-05-26T01:08:37.341Z,1008.14
2019-05-26T01:09:37.305Z,1008.13
2019-05-26T01:10:37.269Z,1008.08
2019-05-26T01:11:37.234Z,1008.12
2019-05-26T01:12:37.202Z,1008.14
2019-05-26T01:13:37.176Z,1008.17
2019-05-26T01:14:37.161Z,1008.14
2019-05-26T01:15:37.116Z,1008.14
2019-05-26T01:16:37.090Z,1008.12
2019-05-26T01:17:37.049Z,1008.13
2019-05-26T01:18:37.021Z,1008.11
2019-05-26T01:19:37.029Z,1008.12
2019-05-26T01:20:36.947Z,1008.11
2019-05-26T01:21:36.918Z,1008.12
2019-05-26T01:22:36.896Z,1008.10
2019-05-26T01:23:36.842Z,1008.11
2019-05-26T01:24:36.821Z,1008.10
2019-05-26T01:25:36.857Z,1008.11
2019-05-26T01:26:36.761Z,1008.09
2019-05-26T01:27:36.728Z,1008.10
2019-05-26T01:28:36.691Z,1008.10
2019-05-26T01:29:36.706Z,1008.12
2019-05-26T01:30:36.638Z,1008.08
2019-05-26T01:31:36.588Z,1008.07
2019-05-26T01:32:36.588Z,1008.05
2019-05-26T01:33:36.525Z,1008.05
2019-05-26T01:34:36.487Z,1008.07
2019-05-26T01:35:36.455Z,1008.10
2019-05-26T01:36:36.431Z,1008.12
2019-05-26T01:37:36.402Z,1008.10
2019-05-26T01:38:36.351Z,1008.06
2019-05-26T01:39:36.331Z,1008.10
2019-05-26T01:40:36.305Z,1008.11
2019-05-26T01:41:36.262Z,1008.06
2019-05-26T01:42:36.258Z,1008.08
2019-05-26T01:43:36.193Z,1008.08
2019-05-26T01:44:36.159Z,1008.07
2019-05-26T01:45:36.133Z,1008.05
2019-05-26T01:46:38.389Z,1008.01
2019-05-26T01:47:37.962Z,1008.05
2019-05-26T01:48:40.024Z,1008.08
2019-05-26T01:49:59.143Z,1008.10
2019-05-26T01:50:37.757Z,1008.10
2019-05-26T01:51:37.742Z,1008.09
2019-05-26T01:52:46.899Z,1008.13
2019-05-26T01:53:40.181Z,1008.08
2019-05-26T01:54:42.724Z,1008.11
2019-05-26T01:55:36.827Z,1008.11
2019-05-26T01:56:36.918Z,1008.12
2019-05-26T01:57:38.761Z,1008.14
2019-05-26T01:58:39.059Z,1008.08
2019-05-26T01:59:37.119Z,1008.09
2019-05-26T02:00:39.332Z,1008.07
2019-05-26T02:01:39.554Z,1008.10
2019-05-26T02:02:39.775Z,1008.06
2019-05-26T02:03:39.429Z,1008.11
2019-05-26T02:04:40.667Z,1008.09
2019-05-26T02:05:37.245Z,1008.11
2019-05-26T02:06:36.286Z,1008.13
2019-05-26T02:07:37.287Z,1008.13
2019-05-26T02:08:39.263Z,1008.13
2019-05-26T02:09:37.398Z,1008.12
2019-05-26T02:10:36.278Z,1008.16
2019-05-26T02:11:37.324Z,1008.11
2019-05-26T02:12:37.010Z,1008.11
2019-05-26T02:13:40.085Z,1008.15
2019-05-26T02:14:37.344Z,1008.11
2019-05-26T02:15:37.936Z,1008.12
2019-05-26T02:16:37.172Z,1008.11
2019-05-26T02:17:36.536Z,1008.12
2019-05-26T02:18:36.985Z,1008.16
2019-05-26T02:19:38.079Z,1008.13
2019-05-26T02:20:38.901Z,1008.12
2019-05-26T02:21:36.567Z,1008.13
2019-05-26T02:22:36.279Z,1008.11
2019-05-26T02:23:37.309Z,1008.11
2019-05-26T02:24:36.875Z,1008.09
2019-05-26T02:25:36.709Z,1008.06
2019-05-26T02:26:39.135Z,1008.06
2019-05-26T02:27:35.659Z,1008.06
2019-05-26T02:28:35.449Z,1008.05
2019-05-26T02:29:36.190Z,1008.03
2019-05-26T02:30:37.911Z,1008.01
2019-05-26T02:31:37.451Z,1008.02
2019-05-26T02:32:38.081Z,1008.01
2019-05-26T02:33:35.950Z,1007.99
2019-05-26T02:34:36.649Z,1008.01
2019-05-26T02:37:15.276Z,1007.97
2019-05-26T02:38:15.024Z,1007.98
2019-05-26T02:39:16.210Z,1007.97
2019-05-26T02:40:16.779Z,1008.01
2019-05-26T02:41:14.947Z,1007.98
2019-05-26T02:42:14.862Z,1007.98
2019-05-26T02:43:14.848Z,1007.98
2019-05-26T02:44:14.792Z,1007.95
2019-05-26T02:45:14.774Z,1007.95
2019-05-26T02:46:14.744Z,1007.92
2019-05-26T02:47:14.736Z,1007.92
2019-05-26T02:48:14.683Z,1007.94
2019-05-26T02:49:14.634Z,1007.92
2019-05-26T02:50:14.610Z,1007.90
2019-05-26T02:51:14.571Z,1007.93
2019-05-26T02:52:14.527Z,1007.93
2019-05-26T02:53:14.503Z,1007.92
2019-05-26T02:54:14.470Z,1007.89
2019-05-26T02:55:14.431Z,1007.90
2019-05-26T02:56:14.427Z,1007.88
2019-05-26T02:57:14.381Z,1007.87
2019-05-26T02:58:14.336Z,1007.89
2019-05-26T02:59:14.326Z,1007.86
2019-05-26T03:00:14.268Z,1007.85
2019-05-26T03:01:14.248Z,1007.83
2019-05-26T03:02:14.206Z,1007.82
2019-05-26T03:03:14.171Z,1007.78
2019-05-26T03:04:14.172Z,1007.80
2019-05-26T03:05:14.141Z,1007.82
2019-05-26T03:06:14.095Z,1007.87
2019-05-26T03:07:14.083Z,1007.82
2019-05-26T03:08:14.013Z,1007.82
2019-05-26T03:09:22.908Z,1007.80
2019-05-26T03:10:13.944Z,1007.79
2019-05-26T03:11:13.916Z,1007.77
2019-05-26T03:12:13.897Z,1007.76
2019-05-26T03:13:13.852Z,1007.76
2019-05-26T03:14:13.808Z,1007.75
2019-05-26T03:15:13.842Z,1007.77
2019-05-26T03:16:13.779Z,1007.75
2019-05-26T03:17:13.743Z,1007.80
2019-05-26T03:18:13.729Z,1007.78
2019-05-26T03:19:13.682Z,1007.76
2019-05-26T03:20:13.627Z,1007.78
2019-05-26T03:21:13.593Z,1007.78
2019-05-26T03:22:13.549Z,1007.74
2019-05-26T03:23:13.519Z,1007.75
2019-05-26T03:24:13.483Z,1007.75
2019-05-26T03:25:13.490Z,1007.75
2019-05-26T03:26:13.429Z,1007.77
2019-05-26T03:27:13.413Z,1007.79
2019-05-26T03:28:13.385Z,1007.84
2019-05-26T03:29:13.372Z,1007.80
2019-05-26T03:30:13.288Z,1007.79
2019-05-26T03:31:13.280Z,1007.80
2019-05-26T03:32:13.262Z,1007.80
2019-05-26T03:33:13.197Z,1007.75
2019-05-26T03:34:13.153Z,1007.75
2019-05-26T03:35:13.150Z,1007.76
2019-05-26T03:36:13.103Z,1007.74
2019-05-26T03:37:13.088Z,1007.74
2019-05-26T03:38:13.021Z,1007.76
2019-05-26T03:39:12.988Z,1007.74
2019-05-26T03:40:12.990Z,1007.73
2019-05-26T03:41:12.933Z,1007.74
2019-05-26T03:42:12.896Z,1007.75
2019-05-26T03:43:12.910Z,1007.74
2019-05-26T03:44:12.850Z,1007.75
2019-05-26T03:45:12.819Z,1007.80
2019-05-26T03:46:12.823Z,1007.73
2019-05-26T03:47:16.607Z,1007.75
2019-05-26T03:48:12.721Z,1007.76
2019-05-26T03:49:12.708Z,1007.74
2019-05-26T03:50:12.635Z,1007.72
2019-05-26T03:51:12.641Z,1007.73
2019-05-26T03:52:12.564Z,1007.74
2019-05-26T03:53:12.534Z,1007.72
2019-05-26T03:54:12.505Z,1007.73
2019-05-26T03:55:12.464Z,1007.72
2019-05-26T03:56:12.434Z,1007.69
2019-05-26T03:57:12.405Z,1007.66
2019-05-26T03:58:12.378Z,1007.65
2019-05-26T03:59:12.335Z,1007.61
2019-05-26T04:00:12.324Z,1007.63
2019-05-26T04:01:12.270Z,1007.63
2019-05-26T04:02:12.234Z,1007.60
2019-05-26T04:03:12.235Z,1007.65
2019-05-26T04:04:12.187Z,1007.62
2019-05-26T04:05:12.159Z,1007.58
2019-05-26T04:06:12.106Z,1007.57
2019-05-26T04:07:12.107Z,1007.64
2019-05-26T04:08:12.056Z,1007.61
2019-05-26T04:09:12.013Z,1007.64
2019-05-26T04:10:11.994Z,1007.64
2019-05-26T04:11:11.943Z,1007.65
2019-05-26T04:12:11.906Z,1007.65
2019-05-26T04:13:11.866Z,1007.61
2019-05-26T04:14:11.872Z,1007.62
2019-05-26T04:15:11.811Z,1007.65
2019-05-26T04:16:11.796Z,1007.66
2019-05-26T04:17:11.761Z,1007.68
2019-05-26T04:18:11.701Z,1007.69
2019-05-26T04:19:11.711Z,1007.65
2019-05-26T04:20:11.643Z,1007.66
2019-05-26T04:21:11.706Z,1007.65
2019-05-26T04:22:11.587Z,1007.66
2019-05-26T04:23:11.543Z,1007.65
2019-05-26T04:24:11.530Z,1007.64
2019-05-26T04:25:11.462Z,1007.64
2019-05-26T04:26:11.446Z,1007.69
2019-05-26T04:27:11.413Z,1007.67
2019-05-26T04:28:11.417Z,1007.64
2019-05-26T04:29:11.348Z,1007.63
2019-05-26T04:30:11.319Z,1007.61
2019-05-26T04:31:11.278Z,1007.59
2019-05-26T04:32:11.282Z,1007.62
2019-05-26T04:33:11.233Z,1007.63
2019-05-26T04:34:11.203Z,1007.68
2019-05-26T04:35:11.147Z,1007.65
2019-05-26T04:36:11.121Z,1007.60
2019-05-26T04:37:11.109Z,1007.60
2019-05-26T04:38:11.093Z,1007.62
2019-05-26T04:39:11.024Z,1007.61
2019-05-26T04:40:25.992Z,1007.61
2019-05-26T04:41:10.992Z,1007.64
2019-05-26T04:42:10.961Z,1007.61
2019-05-26T04:43:14.604Z,1007.61
2019-05-26T04:44:10.865Z,1007.62
2019-05-26T04:45:10.845Z,1007.64
2019-05-26T04:46:10.823Z,1007.59
2019-05-26T04:47:10.772Z,1007.61
2019-05-26T04:48:10.725Z,1007.59
2019-05-26T04:49:10.679Z,1007.59
2019-05-26T04:50:10.645Z,1007.58
2019-05-26T04:51:10.621Z,1007.62
2019-05-26T04:52:10.585Z,1007.64
2019-05-26T04:53:10.553Z,1007.65
2019-05-26T04:54:10.525Z,1007.63
2019-05-26T04:55:10.501Z,1007.64
2019-05-26T04:56:10.450Z,1007.64
2019-05-26T04:57:10.445Z,1007.63
2019-05-26T04:58:10.423Z,1007.64
2019-05-26T04:59:10.394Z,1007.56
2019-05-26T05:00:10.368Z,1007.60
2019-05-26T05:01:10.323Z,1007.57
2019-05-26T05:02:10.256Z,1007.56
2019-05-26T05:03:10.229Z,1007.53
2019-05-26T05:04:10.205Z,1007.54
2019-05-26T05:05:10.201Z,1007.55
2019-05-26T05:06:10.154Z,1007.59
2019-05-26T05:07:10.091Z,1007.54
2019-05-26T05:08:10.089Z,1007.51
2019-05-26T05:09:10.035Z,1007.51
2019-05-26T05:10:10.006Z,1007.51
2019-05-26T05:11:09.954Z,1007.49
2019-05-26T05:12:09.928Z,1007.54
2019-05-26T05:13:09.913Z,1007.52
2019-05-26T05:14:09.870Z,1007.49
2019-05-26T05:15:09.840Z,1007.48
2019-05-26T05:16:09.812Z,1007.51
2019-05-26T05:17:09.768Z,1007.47
2019-05-26T05:18:09.768Z,1007.47
2019-05-26T05:19:09.702Z,1007.42
2019-05-26T05:20:09.669Z,1007.46
2019-05-26T05:21:09.636Z,1007.44
2019-05-26T05:22:09.600Z,1007.45
2019-05-26T05:23:09.579Z,1007.46
2019-05-26T05:24:09.543Z,1007.46
2019-05-26T05:25:14.679Z,1007.39
2019-05-26T05:26:09.476Z,1007.41
2019-05-26T05:27:09.441Z,1007.43
2019-05-26T05:28:09.424Z,1007.40
2019-05-26T05:29:09.377Z,1007.40
2019-05-26T05:30:09.344Z,1007.40
2019-05-26T05:31:09.325Z,1007.41
2019-05-26T05:32:09.285Z,1007.40
2019-05-26T05:33:09.240Z,1007.41
2019-05-26T05:34:09.217Z,1007.43
2019-05-26T05:35:09.192Z,1007.43
2019-05-26T05:36:09.167Z,1007.41
2019-05-26T05:37:09.121Z,1007.40
2019-05-26T05:38:09.093Z,1007.41
2019-05-26T05:39:09.066Z,1007.43
2019-05-26T05:40:09.021Z,1007.45
2019-05-26T05:41:08.989Z,1007.39
2019-05-26T05:42:08.946Z,1007.44
2019-05-26T05:43:08.925Z,1007.39
2019-05-26T05:44:08.920Z,1007.42
2019-05-26T05:45:08.865Z,1007.42
2019-05-26T05:46:08.826Z,1007.41
2019-05-26T05:47:08.822Z,1007.40
2019-05-26T05:48:08.809Z,1007.43
2019-05-26T05:49:08.725Z,1007.40
2019-05-26T05:50:08.704Z,1007.39
2019-05-26T05:51:08.667Z,1007.43
2019-05-26T05:52:08.685Z,1007.42
2019-05-26T05:53:08.597Z,1007.40
2019-05-26T05:54:08.578Z,1007.43
2019-05-26T05:55:08.532Z,1007.42
2019-05-26T05:56:08.530Z,1007.46
2019-05-26T05:57:08.471Z,1007.43
2019-05-26T05:58:08.461Z,1007.44
2019-05-26T05:59:08.414Z,1007.41
2019-05-26T06:00:08.376Z,1007.43
2019-05-26T06:01:08.350Z,1007.40
2019-05-26T06:02:08.316Z,1007.41
2019-05-26T06:03:08.290Z,1007.34
2019-05-26T06:04:08.243Z,1007.35
2019-05-26T06:05:08.228Z,1007.40
2019-05-26T06:06:08.185Z,1007.41
2019-05-26T06:07:08.150Z,1007.40
2019-05-26T06:08:08.141Z,1007.38
2019-05-26T06:09:08.083Z,1007.34
2019-05-26T06:10:08.073Z,1007.32
2019-05-26T06:11:16.520Z,1007.32
2019-05-26T06:12:08.007Z,1007.29
2019-05-26T06:13:07.990Z,1007.32
2019-05-26T06:14:07.931Z,1007.30
2019-05-26T06:15:07.911Z,1007.29
2019-05-26T06:16:07.887Z,1007.30
2019-05-26T06:17:10.424Z,1007.29
2019-05-26T06:18:07.818Z,1007.28
2019-05-26T06:19:07.776Z,1007.29
2019-05-26T06:20:07.744Z,1007.26
2019-05-26T06:21:07.719Z,1007.25
2019-05-26T06:22:07.683Z,1007.26
2019-05-26T06:23:07.642Z,1007.23
2019-05-26T06:24:07.635Z,1007.23
2019-05-26T06:25:07.641Z,1007.23
2019-05-26T06:26:07.572Z,1007.18
2019-05-26T06:27:07.524Z,1007.21
2019-05-26T06:28:07.506Z,1007.20
2019-05-26T06:29:07.479Z,1007.19
2019-05-26T06:30:07.441Z,1007.20
2019-05-26T06:31:07.443Z,1007.19
2019-05-26T06:32:07.578Z,1007.22
2019-05-26T06:33:07.340Z,1007.21
2019-05-26T06:34:07.322Z,1007.23
2019-05-26T06:35:07.302Z,1007.18
2019-05-26T06:36:07.236Z,1007.19
2019-05-26T06:37:07.208Z,1007.22
2019-05-26T06:38:07.180Z,1007.23
2019-05-26T06:39:07.159Z,1007.21
2019-05-26T06:40:07.141Z,1007.22
2019-05-26T06:41:07.103Z,1007.20
2019-05-26T06:42:07.064Z,1007.16
2019-05-26T06:43:07.024Z,1007.16
2019-05-26T06:44:06.985Z,1007.16
2019-05-26T06:45:06.967Z,1007.15
2019-05-26T06:46:06.939Z,1007.15
2019-05-26T06:47:06.900Z,1007.15
2019-05-26T06:48:06.873Z,1007.16
2019-05-26T06:49:06.845Z,1007.20
2019-05-26T06:50:06.838Z,1007.18
2019-05-26T06:51:06.791Z,1007.16
2019-05-26T06:52:06.749Z,1007.20
2019-05-26T06:53:06.758Z,1007.19
2019-05-26T06:54:06.721Z,1007.20
2019-05-26T06:55:06.681Z,1007.19
2019-05-26T06:56:06.638Z,1007.22
2019-05-26T06:57:06.592Z,1007.23
2019-05-26T06:58:06.577Z,1007.22
2019-05-26T06:59:06.540Z,1007.20
2019-05-26T07:00:06.499Z,1007.24
2019-05-26T07:01:06.475Z,1007.27
2019-05-26T07:02:06.432Z,1007.27
2019-05-26T07:03:06.413Z,1007.33
2019-05-26T07:04:06.407Z,1007.26
2019-05-26T07:05:06.345Z,1007.31
2019-05-26T07:06:06.312Z,1007.32
2019-05-26T07:07:06.303Z,1007.33
2019-05-26T07:08:06.257Z,1007.30
2019-05-26T07:09:06.221Z,1007.31
2019-05-26T07:10:06.194Z,1007.31
2019-05-26T07:11:06.163Z,1007.30
2019-05-26T07:12:06.165Z,1007.29
2019-05-26T07:13:06.127Z,1007.29
2019-05-26T07:14:06.075Z,1007.29
2019-05-26T07:15:06.087Z,1007.28
2019-05-26T07:16:06.016Z,1007.28
2019-05-26T07:17:05.989Z,1007.28
2019-05-26T07:18:05.962Z,1007.26
2019-05-26T07:19:05.929Z,1007.27
2019-05-26T07:20:05.927Z,1007.26
2019-05-26T07:21:05.869Z,1007.25
2019-05-26T07:22:05.842Z,1007.26
2019-05-26T07:23:07.259Z,1007.21
2019-05-26T07:24:05.797Z,1007.19
2019-05-26T07:25:05.784Z,1007.22
2019-05-26T07:26:05.704Z,1007.18
2019-05-26T07:27:05.685Z,1007.20
2019-05-26T07:28:05.671Z,1007.17
2019-05-26T07:29:05.623Z,1007.20
2019-05-26T07:30:05.594Z,1007.13
2019-05-26T07:31:05.566Z,1007.16
2019-05-26T07:32:05.529Z,1007.15
2019-05-26T07:33:05.538Z,1007.19
2019-05-26T07:34:05.491Z,1007.18
2019-05-26T07:35:05.452Z,1007.12
2019-05-26T07:36:05.415Z,1007.10
2019-05-26T07:37:05.390Z,1007.06
2019-05-26T07:38:05.398Z,1007.13
2019-05-26T07:39:05.357Z,1007.14
2019-05-26T07:40:05.317Z,1007.13
2019-05-26T07:41:05.280Z,1007.16
2019-05-26T07:42:10.709Z,1007.17
2019-05-26T07:43:05.214Z,1007.18
2019-05-26T07:44:05.209Z,1007.18
2019-05-26T07:45:05.144Z,1007.16
2019-05-26T07:46:05.120Z,1007.16
2019-05-26T07:47:05.117Z,1007.22
2019-05-26T07:48:05.072Z,1007.11
2019-05-26T07:49:05.064Z,1007.21
2019-05-26T07:50:05.017Z,1007.14
2019-05-26T07:51:04.999Z,1007.18
2019-05-26T07:52:04.957Z,1007.24
2019-05-26T07:53:04.914Z,1007.14
2019-05-26T07:54:04.887Z,1007.15
2019-05-26T07:55:04.869Z,1007.19
2019-05-26T07:56:04.833Z,1007.17
2019-05-26T07:57:04.795Z,1007.14
2019-05-26T07:58:04.763Z,1007.20
2019-05-26T07:59:04.740Z,1007.16
2019-05-26T08:00:04.699Z,1007.16
2019-05-26T08:01:04.715Z,1007.13
2019-05-26T08:02:04.654Z,1007.14
2019-05-26T08:03:04.619Z,1007.16
2019-05-26T08:04:04.626Z,1007.15
2019-05-26T08:05:04.594Z,1007.10
2019-05-26T08:06:04.560Z,1007.12
2019-05-26T08:07:04.511Z,1007.12
2019-05-26T08:08:12.572Z,1007.12
2019-05-26T08:09:04.471Z,1007.15
2019-05-26T08:10:04.455Z,1007.16
2019-05-26T08:11:04.379Z,1007.17
2019-05-26T08:12:04.360Z,1007.12
2019-05-26T08:13:04.347Z,1007.14
2019-05-26T08:14:04.302Z,1007.13
2019-05-26T08:15:04.279Z,1007.16
2019-05-26T08:16:04.260Z,1007.18
2019-05-26T08:17:04.207Z,1007.14
2019-05-26T08:18:04.192Z,1007.16
2019-05-26T08:19:04.279Z,1007.17
2019-05-26T08:20:04.135Z,1007.09
2019-05-26T08:21:04.097Z,1007.08
2019-05-26T08:22:04.071Z,1007.08
2019-05-26T08:23:04.035Z,1007.06
2019-05-26T08:24:04.006Z,1007.05
2019-05-26T08:25:03.977Z,1007.05
2019-05-26T08:26:03.951Z,1007.02
2019-05-26T08:27:03.932Z,1007.04
2019-05-26T08:28:03.886Z,1007.02
2019-05-26T08:29:03.862Z,1007.01
2019-05-26T08:30:03.845Z,1007.02
2019-05-26T08:31:03.810Z,1007.01
2019-05-26T08:32:03.779Z,1006.99
2019-05-26T08:33:03.747Z,1007.07
2019-05-26T08:34:03.717Z,1006.99
2019-05-26T08:35:03.707Z,1006.99
2019-05-26T08:36:03.683Z,1006.99
2019-05-26T08:37:03.641Z,1006.95
2019-05-26T08:38:03.661Z,1006.98
2019-05-26T08:39:03.575Z,1006.96
2019-05-26T08:40:03.565Z,1006.96
2019-05-26T08:41:03.520Z,1006.94
2019-05-26T08:42:03.495Z,1006.93
2019-05-26T08:43:03.464Z,1006.97
2019-05-26T08:44:03.436Z,1006.97
2019-05-26T08:45:03.409Z,1007.01
2019-05-26T08:46:03.379Z,1006.99
2019-05-26T08:47:03.353Z,1006.93
2019-05-26T08:48:03.338Z,1006.97
2019-05-26T08:49:03.311Z,1006.94
2019-05-26T08:50:03.258Z,1006.92
2019-05-26T08:51:03.238Z,1006.89
2019-05-26T08:52:03.202Z,1006.88
2019-05-26T08:53:03.184Z,1006.87
2019-05-26T08:54:03.149Z,1006.88
2019-05-26T08:55:03.122Z,1006.84
2019-05-26T08:56:03.087Z,1006.87
2019-05-26T08:57:03.099Z,1006.82
2019-05-26T08:58:11.737Z,1006.83
2019-05-26T09:00:16.487Z,1006.83
2019-05-26T09:02:39.747Z,1006.82
2019-05-26T09:03:39.699Z,1006.85
2019-05-26T09:04:39.673Z,1006.84
2019-05-26T09:05:39.654Z,1006.83
2019-05-26T09:06:39.603Z,1006.84
2019-05-26T09:07:39.589Z,1006.80
2019-05-26T09:08:39.564Z,1006.82
2019-05-26T09:09:39.587Z,1006.73
2019-05-26T09:10:39.499Z,1006.76
2019-05-26T09:11:39.498Z,1006.77
2019-05-26T09:12:39.439Z,1006.80
2019-05-26T09:13:39.402Z,1006.78
2019-05-26T09:14:39.409Z,1006.78
2019-05-26T09:15:39.397Z,1006.74
2019-05-26T09:16:39.323Z,1006.74
2019-05-26T09:17:39.295Z,1006.76
2019-05-26T09:18:39.279Z,1006.65
2019-05-26T09:19:39.229Z,1006.68
2019-05-26T09:20:39.208Z,1006.70
2019-05-26T09:21:39.183Z,1006.71
2019-05-26T09:22:39.149Z,1006.68
2019-05-26T09:23:39.186Z,1006.68
2019-05-26T09:24:39.143Z,1006.69
2019-05-26T09:25:39.060Z,1006.70
2019-05-26T09:26:39.099Z,1006.69
2019-05-26T09:27:39.043Z,1006.69
2019-05-26T09:28:39.021Z,1006.73
2019-05-26T09:29:38.998Z,1006.69
2019-05-26T09:30:38.940Z,1006.68
2019-05-26T09:31:38.946Z,1006.65
2019-05-26T09:32:38.907Z,1006.66
2019-05-26T09:33:38.874Z,1006.63
2019-05-26T09:34:38.826Z,1006.61
2019-05-26T09:35:38.795Z,1006.60
2019-05-26T09:36:38.871Z,1006.56
2019-05-26T09:37:38.743Z,1006.57
2019-05-26T09:38:38.725Z,1006.61
2019-05-26T09:39:38.717Z,1006.59
2019-05-26T09:40:38.669Z,1006.64
2019-05-26T09:41:38.665Z,1006.59
2019-05-26T09:42:38.610Z,1006.61
2019-05-26T09:43:38.586Z,1006.58
2019-05-26T09:44:38.567Z,1006.58
2019-05-26T09:45:38.560Z,1006.62
2019-05-26T09:46:38.513Z,1006.61
2019-05-26T09:47:38.484Z,1006.53
2019-05-26T09:48:38.475Z,1006.53
2019-05-26T09:49:38.428Z,1006.54
2019-05-26T09:50:38.422Z,1006.54
2019-05-26T09:51:38.402Z,1006.56
2019-05-26T09:52:38.341Z,1006.52
2019-05-26T09:53:38.328Z,1006.56
2019-05-26T09:54:38.291Z,1006.59
2019-05-26T09:55:38.268Z,1006.55
2019-05-26T09:56:38.250Z,1006.54
2019-05-26T09:57:38.243Z,1006.54
2019-05-26T09:58:38.198Z,1006.54
2019-05-26T09:59:38.151Z,1006.54
2019-05-26T10:00:38.135Z,1006.52
2019-05-26T10:01:38.115Z,1006.49
2019-05-26T10:02:38.078Z,1006.48
2019-05-26T10:03:38.062Z,1006.47
2019-05-26T10:04:38.022Z,1006.51
2019-05-26T10:05:38.002Z,1006.47
2019-05-26T10:06:37.969Z,1006.46
2019-05-26T10:07:37.937Z,1006.51
2019-05-26T10:08:37.957Z,1006.50
2019-05-26T10:09:37.892Z,1006.47
2019-05-26T10:10:37.863Z,1006.49
2019-05-26T10:11:37.834Z,1006.52
2019-05-26T10:12:37.809Z,1006.49
2019-05-26T10:13:37.788Z,1006.48
2019-05-26T10:14:37.771Z,1006.48
2019-05-26T10:15:37.727Z,1006.46
2019-05-26T10:16:37.708Z,1006.42
2019-05-26T10:17:37.672Z,1006.47
2019-05-26T10:18:37.664Z,1006.46
2019-05-26T10:19:37.619Z,1006.45
2019-05-26T10:20:37.592Z,1006.42
2019-05-26T10:21:37.563Z,1006.42
2019-05-26T10:22:37.572Z,1006.42
2019-05-26T10:23:37.527Z,1006.39
2019-05-26T10:24:37.518Z,1006.42
2019-05-26T10:25:37.464Z,1006.41
2019-05-26T10:26:37.427Z,1006.39
2019-05-26T10:27:37.398Z,1006.42
2019-05-26T10:28:37.374Z,1006.41
2019-05-26T10:29:37.353Z,1006.39
2019-05-26T10:30:37.347Z,1006.43
2019-05-26T10:31:37.317Z,1006.41
2019-05-26T10:32:37.271Z,1006.43
2019-05-26T10:33:37.303Z,1006.41
2019-05-26T10:34:37.237Z,1006.43
2019-05-26T10:35:37.192Z,1006.41
2019-05-26T10:36:37.189Z,1006.43
2019-05-26T10:37:37.163Z,1006.39
2019-05-26T10:38:37.109Z,1006.42
2019-05-26T10:39:37.115Z,1006.41
2019-05-26T10:40:37.051Z,1006.40
2019-05-26T10:41:37.123Z,1006.35
2019-05-26T10:42:37.008Z,1006.35
2019-05-26T10:43:46.743Z,1006.38
2019-05-26T10:44:36.953Z,1006.37
2019-05-26T10:45:36.930Z,1006.35
2019-05-26T10:46:36.889Z,1006.37
2019-05-26T10:47:36.905Z,1006.37
2019-05-26T10:48:36.845Z,1006.36
2019-05-26T10:49:36.806Z,1006.38
2019-05-26T10:50:36.781Z,1006.38
2019-05-26T10:51:36.759Z,1006.34
2019-05-26T10:52:36.729Z,1006.34
2019-05-26T10:53:36.721Z,1006.33
2019-05-26T10:54:36.709Z,1006.34
2019-05-26T10:55:36.645Z,1006.31
2019-05-26T10:56:36.627Z,1006.33
2019-05-26T10:57:36.621Z,1006.34
2019-05-26T10:58:36.561Z,1006.35
2019-05-26T10:59:36.545Z,1006.35
2019-05-26T11:00:36.520Z,1006.33
2019-05-26T11:01:36.487Z,1006.36
2019-05-26T11:02:36.459Z,1006.39
2019-05-26T11:03:36.444Z,1006.34
2019-05-26T11:04:36.402Z,1006.34
2019-05-26T11:05:36.402Z,1006.30
2019-05-26T11:06:36.367Z,1006.32
2019-05-26T11:07:36.337Z,1006.32
2019-05-26T11:08:36.304Z,1006.32
2019-05-26T11:09:36.277Z,1006.31
2019-05-26T11:10:36.252Z,1006.28
2019-05-26T11:11:36.225Z,1006.30
2019-05-26T11:12:36.189Z,1006.27
2019-05-26T11:13:36.169Z,1006.23
2019-05-26T11:14:36.159Z,1006.22
2019-05-26T11:15:36.117Z,1006.25
2019-05-26T11:16:36.080Z,1006.19
2019-05-26T11:17:36.058Z,1006.22
2019-05-26T11:18:36.033Z,1006.24
2019-05-26T11:19:36.017Z,1006.17
2019-05-26T11:20:35.997Z,1006.21
2019-05-26T11:21:35.959Z,1006.18
2019-05-26T11:22:35.941Z,1006.19
2019-05-26T11:23:35.900Z,1006.14
2019-05-26T11:24:35.877Z,1006.15
2019-05-26T11:25:35.836Z,1006.14
2019-05-26T11:26:35.813Z,1006.10
2019-05-26T11:27:35.791Z,1006.11
2019-05-26T11:28:35.765Z,1006.10
2019-05-26T11:29:35.738Z,1006.07
2019-05-26T11:30:35.727Z,1006.06
2019-05-26T11:31:35.676Z,1006.00
2019-05-26T11:32:35.649Z,1005.99
2019-05-26T11:33:35.640Z,1005.97
2019-05-26T11:34:35.601Z,1005.98
2019-05-26T11:35:35.564Z,1006.01
2019-05-26T11:36:35.542Z,1005.93
2019-05-26T11:37:35.525Z,1005.98
2019-05-26T11:38:35.519Z,1005.98
2019-05-26T11:39:35.479Z,1005.96
2019-05-26T11:40:35.457Z,1005.95
2019-05-26T11:41:35.399Z,1005.98
2019-05-26T11:42:35.381Z,1005.96
2019-05-26T11:43:35.367Z,1005.95
2019-05-26T11:44:35.351Z,1005.92
2019-05-26T11:45:35.310Z,1005.91
2019-05-26T11:46:35.278Z,1005.91
2019-05-26T11:47:35.263Z,1005.94
2019-05-26T11:48:38.476Z,1005.96
2019-05-26T11:49:35.213Z,1006.00
2019-05-26T11:50:35.170Z,1005.96
2019-05-26T11:51:35.138Z,1005.91
2019-05-26T11:52:35.125Z,1005.97
2019-05-26T11:53:35.094Z,1005.89
2019-05-26T11:54:35.065Z,1005.93
2019-05-26T11:55:35.063Z,1005.88
2019-05-26T11:56:35.020Z,1005.89
2019-05-26T11:57:36.849Z,1005.82
2019-05-26T11:58:34.979Z,1005.86
2019-05-26T11:59:34.950Z,1005.89
2019-05-26T12:00:34.912Z,1005.82
2019-05-26T12:01:34.886Z,1005.86
2019-05-26T12:02:34.853Z,1005.87
2019-05-26T12:03:34.820Z,1005.83
2019-05-26T12:04:34.831Z,1005.83
2019-05-26T12:05:34.809Z,1005.82
2019-05-26T12:06:34.744Z,1005.79
2019-05-26T12:07:34.729Z,1005.78
2019-05-26T12:08:34.722Z,1005.79
2019-05-26T12:09:34.674Z,1005.85